createdAt,value
2019-03-08T00:02:25.818Z,98742.09
2019-03-08T00:04:54.088Z,98739.25
2019-03-08T00:07:22.352Z,98732.64
2019-03-08T00:09:50.926Z,98734.98
2019-03-08T00:12:19.177Z,98729.67
2019-03-08T00:14:47.469Z,98727.69
2019-03-08T00:17:15.718Z,98721.52
2019-03-08T00:19:44.015Z,98717.28
2019-03-08T00:22:12.319Z,98716.45
2019-03-08T00:24:40.607Z,98729.46
2019-03-08T00:27:08.876Z,98754.37
2019-03-08T00:29:37.132Z,98743.14
2019-03-08T00:32:05.494Z,98753.73
2019-03-08T00:34:33.764Z,98767.75
2019-03-08T00:37:02.043Z,98762.88
2019-03-08T00:39:30.303Z,98771.47
2019-03-08T00:41:58.573Z,98759.16
2019-03-08T00:44:26.850Z,98754.40
2019-03-08T00:46:55.121Z,98759.23
2019-03-08T00:49:23.400Z,98758.61
2019-03-08T00:51:51.668Z,98753.02
2019-03-08T00:54:19.953Z,98753.38
2019-03-08T00:56:48.210Z,98757.12
2019-03-08T00:59:16.477Z,98743.98
2019-03-08T01:01:44.758Z,98728.40
2019-03-08T01:04:13.024Z,98740.05
2019-03-08T01:06:41.295Z,98740.73
2019-03-08T01:09:09.572Z,98742.75
2019-03-08T01:11:38.055Z,98739.30
2019-03-08T01:14:06.326Z,98734.80
2019-03-08T01:16:34.616Z,98727.84
2019-03-08T01:19:02.890Z,98719.94
2019-03-08T01:21:31.159Z,98732.56
2019-03-08T01:23:59.439Z,98732.61
2019-03-08T01:26:28.000Z,98730.91
2019-03-08T01:28:56.295Z,98724.55
2019-03-08T01:31:24.559Z,98717.92
2019-03-08T01:33:52.850Z,98708.52
2019-03-08T01:36:21.135Z,98725.48
2019-03-08T01:38:49.405Z,98709.08
2019-03-08T01:41:17.870Z,98716.40
2019-03-08T01:43:46.142Z,98707.16
2019-03-08T01:46:14.434Z,98713.96
2019-03-08T01:48:42.694Z,98717.12
2019-03-08T01:51:10.970Z,98722.52
2019-03-08T01:53:40.266Z,98712.72
2019-03-08T01:56:08.726Z,98691.49
2019-03-08T01:58:37.000Z,98707.03
2019-03-08T02:01:05.277Z,98703.71
2019-03-08T02:03:33.547Z,98697.85
2019-03-08T02:06:01.827Z,98703.51
2019-03-08T02:08:30.125Z,98707.45
2019-03-08T02:10:58.604Z,98690.17
2019-03-08T02:13:26.888Z,98698.42
2019-03-08T02:15:55.185Z,98696.50
2019-03-08T02:18:23.453Z,98705.06
2019-03-08T02:20:52.369Z,98700.03
2019-03-08T02:23:20.684Z,98705.69
2019-03-08T02:25:49.242Z,98701.69
2019-03-08T02:28:17.546Z,98715.33
2019-03-08T02:30:45.844Z,98704.80
2019-03-08T02:33:14.136Z,98689.44
2019-03-08T02:35:42.463Z,98705.14
2019-03-08T02:38:10.703Z,98703.47
2019-03-08T02:40:39.475Z,98717.27
2019-03-08T02:43:12.488Z,98694.77
2019-03-08T02:45:40.776Z,98682.47
2019-03-08T02:48:09.077Z,98676.94
2019-03-08T02:50:37.358Z,98681.80
2019-03-08T02:53:05.704Z,98693.94
2019-03-08T02:55:34.129Z,98686.56
2019-03-08T02:58:02.417Z,98676.55
2019-03-08T03:00:34.438Z,98675.16
2019-03-08T03:03:02.816Z,98674.78
2019-03-08T03:05:31.088Z,98672.09
2019-03-08T03:07:59.341Z,98666.08
2019-03-08T03:10:27.642Z,98678.11
2019-03-08T03:12:55.919Z,98675.41
2019-03-08T03:15:24.219Z,98676.34
2019-03-08T03:17:52.599Z,98684.39
2019-03-08T03:20:20.869Z,98681.45
2019-03-08T03:22:49.139Z,98686.33
2019-03-08T03:25:17.412Z,98702.46
2019-03-08T03:27:45.703Z,98696.34
2019-03-08T03:30:20.732Z,98699.88
2019-03-08T03:32:49.014Z,98697.17
2019-03-08T03:35:17.297Z,98705.22
2019-03-08T03:37:45.860Z,98703.30
2019-03-08T03:40:18.408Z,98705.16
2019-03-08T03:42:46.677Z,98708.64
2019-03-08T03:45:19.117Z,98705.95
2019-03-08T03:47:48.033Z,98712.06
2019-03-08T03:50:18.340Z,98709.47
2019-03-08T03:52:46.362Z,98718.81
2019-03-08T03:55:16.283Z,98719.64
2019-03-08T03:57:44.549Z,98726.98
2019-03-08T04:00:18.831Z,98735.11
2019-03-08T04:02:47.156Z,98752.33
2019-03-08T04:05:15.521Z,98757.98
2019-03-08T04:07:43.797Z,98747.14
2019-03-08T04:10:14.266Z,98760.34
2019-03-08T04:12:42.545Z,98758.35
2019-03-08T04:15:13.529Z,98765.30
2019-03-08T04:17:41.831Z,98777.34
2019-03-08T04:20:12.530Z,98773.78
2019-03-08T04:22:40.832Z,98781.93
2019-03-08T04:25:10.147Z,98790.34
2019-03-08T04:27:38.418Z,98791.28
2019-03-08T04:30:09.805Z,98798.33
2019-03-08T04:32:38.249Z,98795.06
2019-03-08T04:35:06.515Z,98797.77
2019-03-08T04:37:34.802Z,98802.59
2019-03-08T04:40:03.848Z,98801.66
2019-03-08T04:42:32.118Z,98805.91
2019-03-08T04:45:00.380Z,98811.47
2019-03-08T04:47:28.942Z,98812.20
2019-03-08T04:49:57.217Z,98814.89
2019-03-08T04:52:25.500Z,98817.95
2019-03-08T04:54:53.757Z,98810.90
2019-03-08T04:57:22.019Z,98821.02
2019-03-08T04:59:50.303Z,98838.71
2019-03-08T05:02:18.569Z,98837.88
2019-03-08T05:04:46.842Z,98841.30
2019-03-08T05:07:15.124Z,98820.75
2019-03-08T05:09:43.400Z,98847.27
2019-03-08T05:12:11.675Z,98849.39
2019-03-08T05:14:39.960Z,98851.52
2019-03-08T05:17:08.254Z,98840.91
2019-03-08T05:19:36.528Z,98853.88
2019-03-08T05:22:04.863Z,98870.84
2019-03-08T05:24:33.116Z,98878.39
2019-03-08T05:27:01.389Z,98883.25
2019-03-08T05:29:29.671Z,98887.80
2019-03-08T05:31:57.944Z,98890.40
2019-03-08T05:34:26.381Z,98893.55
2019-03-08T05:36:54.659Z,98884.01
2019-03-08T05:39:22.943Z,98894.75
2019-03-08T05:41:52.821Z,98896.05
2019-03-08T05:44:21.095Z,98904.77
2019-03-08T05:46:49.368Z,98907.55
2019-03-08T05:49:17.845Z,98904.70
2019-03-08T05:51:46.131Z,98911.45
2019-03-08T05:54:14.410Z,98921.36
2019-03-08T05:56:42.700Z,98930.91
2019-03-08T05:59:10.977Z,98938.22
2019-03-08T06:01:39.255Z,98943.80
2019-03-08T06:04:07.818Z,98953.70
2019-03-08T06:06:36.110Z,98968.44
2019-03-08T06:09:06.414Z,98974.09
2019-03-08T06:11:34.696Z,98976.12
2019-03-08T06:14:02.992Z,98985.77
2019-03-08T06:16:31.241Z,99008.73
2019-03-08T06:18:59.814Z,99021.70
2019-03-08T06:21:28.082Z,99035.52
2019-03-08T06:23:56.369Z,99059.69
2019-03-08T06:26:24.655Z,99058.80
2019-03-08T06:28:52.940Z,99069.17
2019-03-08T06:31:21.222Z,99074.27
2019-03-08T06:33:49.489Z,99078.96
2019-03-08T06:36:17.948Z,99093.22
2019-03-08T06:38:46.234Z,99122.48
2019-03-08T06:41:14.514Z,99128.44
2019-03-08T06:43:43.261Z,99135.75
2019-03-08T06:46:11.534Z,99134.81
2019-03-08T06:48:39.800Z,99157.59
2019-03-08T06:51:08.074Z,99170.73
2019-03-08T06:53:36.354Z,99171.00
2019-03-08T06:56:04.636Z,99183.05
2019-03-08T06:58:34.568Z,99200.63
2019-03-08T07:01:04.491Z,99202.56
2019-03-08T07:03:32.763Z,99223.84
2019-03-08T07:06:01.034Z,99236.34
2019-03-08T07:08:29.329Z,99238.34
2019-03-08T07:10:57.654Z,99258.36
2019-03-08T07:13:25.929Z,99280.66
2019-03-08T07:15:54.212Z,99297.03
2019-03-08T07:18:22.468Z,99314.75
2019-03-08T07:20:58.060Z,99312.82
2019-03-08T07:23:39.668Z,99326.45
2019-03-08T07:26:12.518Z,99331.72
2019-03-08T07:28:51.060Z,99336.11
2019-03-08T07:31:30.291Z,99352.36
2019-03-08T07:34:16.363Z,99349.10
2019-03-08T07:36:57.983Z,99369.75
2019-03-08T07:39:42.696Z,99375.23
2019-03-08T07:42:24.485Z,99400.77
2019-03-08T07:45:08.955Z,99413.36
2019-03-08T07:47:41.242Z,99429.67
2019-03-08T07:50:23.676Z,99445.83
2019-03-08T07:52:59.431Z,99454.06
2019-03-08T07:55:29.352Z,99461.45
2019-03-08T07:58:15.203Z,99474.55
2019-03-08T08:00:47.509Z,99487.52
2019-03-08T08:03:35.670Z,99498.11
2019-03-08T08:06:05.584Z,99503.28
2019-03-08T08:08:35.502Z,99506.31
2019-03-08T08:11:17.261Z,99522.89
2019-03-08T08:14:03.105Z,99521.75
2019-03-08T08:16:51.192Z,99529.28
2019-03-08T08:19:21.098Z,99539.50
2019-03-08T08:22:00.023Z,99543.92
2019-03-08T08:24:29.934Z,99559.86
2019-03-08T08:27:02.494Z,99579.60
2019-03-08T08:29:41.642Z,99588.84
2019-03-08T08:32:23.243Z,99604.04
2019-03-08T08:34:58.805Z,99618.14
2019-03-08T08:37:40.545Z,99613.97
2019-03-08T08:40:11.899Z,99640.61
2019-03-08T08:42:58.045Z,99660.28
2019-03-08T08:45:43.624Z,99668.00
2019-03-08T08:48:29.700Z,99676.02
2019-03-08T08:50:59.615Z,99683.02
2019-03-08T08:53:32.618Z,99685.62
2019-03-08T08:56:14.099Z,99689.59
2019-03-08T08:58:46.930Z,99709.72
2019-03-08T09:01:22.373Z,99714.83
2019-03-08T09:03:55.007Z,99724.30
2019-03-08T09:06:41.075Z,99729.17
2019-03-08T09:09:16.422Z,99739.63
2019-03-08T09:11:52.503Z,99732.39
2019-03-08T09:14:20.877Z,99749.48
2019-03-08T09:17:06.456Z,99765.32
2019-03-08T09:19:42.009Z,99778.31
2019-03-08T09:22:17.628Z,99786.02
2019-03-08T09:24:47.509Z,99798.98
2019-03-08T09:27:20.100Z,99793.03
2019-03-08T09:30:04.787Z,99784.02
2019-03-08T09:32:40.379Z,99799.22
2019-03-08T09:35:26.178Z,99806.46
2019-03-08T09:37:56.117Z,99811.34
2019-03-08T09:40:28.609Z,99814.94
2019-03-08T09:43:07.136Z,99811.32
2019-03-08T09:45:48.749Z,99810.89
2019-03-08T09:48:34.612Z,99825.64
2019-03-08T09:51:04.527Z,99826.36
2019-03-08T09:53:34.435Z,99834.59
2019-03-08T09:56:04.363Z,99852.34
2019-03-08T09:58:50.286Z,99865.56
2019-03-08T10:01:20.173Z,99861.20
2019-03-08T10:03:50.079Z,99866.33
2019-03-08T10:06:25.990Z,99864.05
2019-03-08T10:08:56.465Z,99888.25
2019-03-08T10:11:31.774Z,99887.17
2019-03-08T10:14:01.678Z,99905.75
2019-03-08T10:16:47.692Z,99908.02
2019-03-08T10:19:29.688Z,99903.09
2019-03-08T10:22:08.472Z,99915.31
2019-03-08T10:24:41.274Z,99932.14
2019-03-08T10:27:14.649Z,99959.98
2019-03-08T10:29:56.385Z,99965.64
2019-03-08T10:32:26.328Z,99992.25
2019-03-08T10:35:05.045Z,100005.88
2019-03-08T10:37:40.865Z,100010.28
2019-03-08T10:40:11.741Z,100016.00
2019-03-08T10:42:44.279Z,100024.78
2019-03-08T10:45:25.917Z,100022.97
2019-03-08T10:48:07.322Z,100036.42
2019-03-08T10:50:53.399Z,100035.41
2019-03-08T10:53:26.229Z,100037.67
2019-03-08T10:55:56.142Z,100034.12
2019-03-08T10:58:28.690Z,100041.93
2019-03-08T11:01:07.625Z,100043.15
2019-03-08T11:03:43.315Z,100042.67
2019-03-08T11:06:13.224Z,100064.95
2019-03-08T11:08:43.115Z,100067.05
2019-03-08T11:11:29.339Z,100052.88
2019-03-08T11:14:14.914Z,100059.05
2019-03-08T11:16:47.717Z,100076.16
2019-03-08T11:19:17.665Z,100072.09
2019-03-08T11:22:03.551Z,100072.25
2019-03-08T11:24:42.223Z,100072.53
2019-03-08T11:27:24.135Z,100081.58
2019-03-08T11:29:54.048Z,100083.24
2019-03-08T11:32:38.668Z,100085.16
2019-03-08T11:35:16.750Z,100108.05
2019-03-08T11:37:46.669Z,100118.95
2019-03-08T11:40:22.635Z,100123.53
2019-03-08T11:42:52.552Z,100124.22
2019-03-08T11:45:40.242Z,100125.73
2019-03-08T11:48:12.814Z,100153.71
2019-03-08T11:51:00.572Z,100166.53
2019-03-08T11:53:55.763Z,100171.97
2019-03-08T11:56:18.271Z,100164.64
2019-03-08T11:59:06.311Z,100178.50
2019-03-08T12:01:44.760Z,100193.53
2019-03-08T12:04:20.295Z,100196.29
2019-03-08T12:06:56.148Z,100199.50
2019-03-08T12:09:26.074Z,100210.66
2019-03-08T12:11:58.969Z,100213.11
2019-03-08T12:14:28.898Z,100221.98
2019-03-08T12:17:14.397Z,100225.44
2019-03-08T12:19:46.826Z,100230.87
2019-03-08T12:22:16.720Z,100240.17
2019-03-08T12:24:58.657Z,100229.07
2019-03-08T12:27:31.251Z,100246.49
2019-03-08T12:30:09.916Z,100250.48
2019-03-08T12:32:40.509Z,100246.82
2019-03-08T12:35:11.551Z,100268.27
2019-03-08T12:37:47.303Z,100235.66
2019-03-08T12:40:17.297Z,100277.34
2019-03-08T12:43:08.085Z,100290.46
2019-03-08T12:45:33.341Z,100289.62
2019-03-08T12:48:23.437Z,100294.42
2019-03-08T12:50:58.184Z,100304.44
2019-03-08T12:53:39.928Z,100296.95
2019-03-08T12:56:09.846Z,100321.21
2019-03-08T12:58:39.771Z,100325.26
2019-03-08T13:01:21.631Z,100331.30
2019-03-08T13:03:51.572Z,100348.63
2019-03-08T13:06:39.309Z,100340.33
2019-03-08T13:09:14.170Z,100354.64
2019-03-08T13:11:42.436Z,100354.59
2019-03-08T13:14:10.690Z,100343.84
2019-03-08T13:16:38.963Z,100328.77
2019-03-08T13:19:07.244Z,100341.43
2019-03-08T13:21:35.501Z,100341.73
2019-03-08T13:24:03.959Z,100348.80
2019-03-08T13:26:32.239Z,100343.41
2019-03-08T13:29:00.523Z,100355.14
2019-03-08T13:31:28.804Z,100352.95
2019-03-08T13:33:57.053Z,100346.47
2019-03-08T13:36:25.315Z,100345.16
2019-03-08T13:38:53.573Z,100371.16
2019-03-08T13:41:22.031Z,100386.00
2019-03-08T13:43:50.303Z,100378.70
2019-03-08T13:46:18.588Z,100383.54
2019-03-08T13:48:46.870Z,100400.92
2019-03-08T13:51:15.132Z,100399.03
2019-03-08T13:53:43.410Z,100411.79
2019-03-08T13:56:11.844Z,100413.87
2019-03-08T13:58:40.124Z,100420.20
2019-03-08T14:01:08.378Z,100421.58
2019-03-08T14:03:36.649Z,100451.86
2019-03-08T14:06:04.913Z,100431.64
2019-03-08T14:08:33.168Z,100447.25
2019-03-08T14:11:01.726Z,100451.86
2019-03-08T14:13:30.029Z,100439.66
2019-03-08T14:15:58.299Z,100452.11
2019-03-08T14:18:26.604Z,100427.50
2019-03-08T14:26:25.950Z,100455.59
2019-03-08T14:28:54.208Z,100443.34
2019-03-08T14:31:24.105Z,100455.87
2019-03-08T14:33:52.555Z,100454.81
2019-03-08T14:36:20.813Z,100455.03
2019-03-08T14:38:49.077Z,100462.83
2019-03-08T14:41:30.637Z,100463.53
2019-03-08T14:43:59.380Z,100474.05
2019-03-08T14:46:32.088Z,100484.40
2019-03-08T14:49:00.344Z,100498.50
2019-03-08T14:51:28.674Z,100502.45
2019-03-08T14:53:56.909Z,100519.66
2019-03-08T14:56:25.173Z,100527.23
2019-03-08T14:58:53.728Z,100537.09
2019-03-08T15:01:22.102Z,100547.45
2019-03-08T15:03:50.359Z,100570.30
2019-03-08T15:06:18.610Z,100578.55
2019-03-08T15:08:46.880Z,100579.20
2019-03-08T15:11:15.172Z,100576.97
2019-03-08T15:13:43.623Z,100580.80
2019-03-08T15:16:11.894Z,100551.86
2019-03-08T15:18:40.152Z,100560.93
2019-03-08T15:21:08.497Z,100557.61
2019-03-08T15:23:36.770Z,100561.59
2019-03-08T15:26:05.102Z,100562.44
2019-03-08T15:28:33.388Z,100567.36
2019-03-08T15:31:01.717Z,100564.52
2019-03-08T15:33:29.949Z,100559.66
2019-03-08T15:35:58.266Z,100559.33
2019-03-08T15:38:26.479Z,100568.54
2019-03-08T15:40:55.045Z,100571.08
2019-03-08T15:43:23.331Z,100575.13
2019-03-08T15:45:51.605Z,100573.52
2019-03-08T15:48:19.903Z,100578.05
2019-03-08T15:50:48.222Z,100580.32
2019-03-08T15:53:16.520Z,100583.55
2019-03-08T15:55:52.472Z,100585.19
2019-03-08T15:58:16.617Z,100589.33
2019-03-08T16:00:44.882Z,100592.14
2019-03-08T16:03:13.161Z,100589.89
2019-03-08T16:05:41.444Z,100589.23
2019-03-08T16:08:15.895Z,100598.87
2019-03-08T16:10:44.946Z,100591.92
2019-03-08T16:13:13.207Z,100597.17
2019-03-08T16:15:41.497Z,100597.69
2019-03-08T16:18:09.762Z,100603.61
2019-03-08T16:20:38.607Z,100602.38
2019-03-08T16:23:08.451Z,100602.20
2019-03-08T16:25:41.156Z,100592.14
2019-03-08T16:28:06.813Z,100590.56
2019-03-08T16:30:38.346Z,100589.89
2019-03-08T16:33:14.377Z,100581.14
2019-03-08T16:35:56.323Z,100581.41
2019-03-08T16:38:37.895Z,100585.55
2019-03-08T16:41:14.084Z,100586.97
2019-03-08T16:43:56.960Z,100583.19
2019-03-08T16:46:32.517Z,100597.63
2019-03-08T16:49:04.801Z,100607.11
2019-03-08T16:51:43.395Z,100601.19
2019-03-08T16:54:28.016Z,100586.33
2019-03-08T16:57:13.010Z,100598.70
2019-03-08T16:59:45.608Z,100595.31
2019-03-08T17:02:27.512Z,100591.81
2019-03-08T17:05:06.076Z,100603.16
2019-03-08T17:07:41.562Z,100599.95
2019-03-08T17:10:13.891Z,100600.95
2019-03-08T17:12:55.767Z,100600.61
2019-03-08T17:15:40.512Z,100600.55
2019-03-08T17:18:10.414Z,100599.77
2019-03-08T17:20:40.513Z,100599.37
2019-03-08T17:23:22.088Z,100601.80
2019-03-08T17:25:51.990Z,100604.62
2019-03-08T17:28:21.901Z,100614.33
2019-03-08T17:30:54.916Z,100614.05
2019-03-08T17:33:36.884Z,100611.95
2019-03-08T17:36:12.598Z,100616.67
2019-03-08T17:38:42.513Z,100609.05
2019-03-08T17:41:12.431Z,100620.09
2019-03-08T17:43:42.746Z,100623.28
2019-03-08T17:46:28.576Z,100616.38
2019-03-08T17:49:01.325Z,100624.39
2019-03-08T17:51:42.939Z,100630.86
2019-03-08T17:54:24.910Z,100627.03
2019-03-08T17:57:07.106Z,100635.18
2019-03-08T17:59:37.018Z,100635.87
2019-03-08T18:02:09.579Z,100633.63
2019-03-08T18:04:42.181Z,100639.76
2019-03-08T18:07:23.850Z,100640.71
2019-03-08T18:09:53.762Z,100649.28
2019-03-08T18:12:26.554Z,100646.84
2019-03-08T18:15:08.202Z,100649.04
2019-03-08T18:17:38.135Z,100660.81
2019-03-08T18:20:21.337Z,100664.95
2019-03-08T18:22:56.633Z,100662.85
2019-03-08T18:25:29.193Z,100667.09
2019-03-08T18:28:01.795Z,100669.32
2019-03-08T18:30:31.700Z,100662.61
2019-03-08T18:33:04.266Z,100666.45
2019-03-08T18:35:36.782Z,100666.45
2019-03-08T18:38:09.642Z,100666.50
2019-03-08T18:40:39.553Z,100668.14
2019-03-08T18:43:09.465Z,100675.32
2019-03-08T18:45:39.361Z,100673.17
2019-03-08T18:48:24.324Z,100667.59
2019-03-08T18:50:57.149Z,100671.03
2019-03-08T18:53:44.995Z,100667.73
2019-03-08T18:56:32.558Z,100666.92
2019-03-08T18:59:18.129Z,100674.80
2019-03-08T19:01:56.763Z,100669.62
2019-03-08T19:04:42.879Z,100660.09
2019-03-08T19:07:15.710Z,100657.57
2019-03-08T19:09:45.612Z,100657.47
2019-03-08T19:12:17.915Z,100654.98
2019-03-08T19:15:04.173Z,100661.00
2019-03-08T19:17:34.074Z,100658.86
2019-03-08T19:20:19.860Z,100654.73
2019-03-08T19:23:07.308Z,100652.19
2019-03-08T19:25:45.963Z,100664.59
2019-03-08T19:28:31.777Z,100660.91
2019-03-08T19:31:01.680Z,100661.06
2019-03-08T19:33:46.454Z,100654.67
2019-03-08T19:36:16.371Z,100650.19
2019-03-08T19:38:46.370Z,100654.58
2019-03-08T19:41:18.974Z,100654.08
2019-03-08T19:43:54.514Z,100649.63
2019-03-08T19:46:40.405Z,100649.50
2019-03-08T19:49:10.391Z,100646.00
2019-03-08T19:51:43.250Z,100640.56
2019-03-08T19:54:13.168Z,100637.72
2019-03-08T19:56:48.897Z,100633.73
2019-03-08T19:59:34.494Z,100626.90
2019-03-08T20:02:19.271Z,100622.55
2019-03-08T20:05:05.184Z,100621.97
2019-03-08T20:07:43.919Z,100615.88
2019-03-08T20:10:28.626Z,100607.86
2019-03-08T20:12:58.539Z,100606.95
2019-03-08T20:15:40.494Z,100605.25
2019-03-08T20:18:22.189Z,100604.41
2019-03-08T20:21:00.900Z,100604.75
2019-03-08T20:23:30.784Z,100605.03
2019-03-08T20:26:09.596Z,100607.77
2019-03-08T20:28:47.991Z,100609.80
2019-03-08T20:31:26.679Z,100606.44
2019-03-08T20:34:13.341Z,100601.95
2019-03-08T20:36:45.698Z,100602.84
2019-03-08T20:39:33.426Z,100597.00
2019-03-08T20:42:03.332Z,100591.11
2019-03-08T20:44:33.218Z,100583.21
2019-03-08T20:47:11.845Z,100580.58
2019-03-08T20:49:40.093Z,100574.09
2019-03-08T20:52:08.352Z,100568.89
2019-03-08T20:54:36.781Z,100562.81
2019-03-08T20:57:05.126Z,100561.92
2019-03-08T20:59:33.373Z,100560.53
2019-03-08T21:02:01.654Z,100562.41
2019-03-08T21:04:29.947Z,100565.09
2019-03-08T21:06:58.226Z,100553.56
2019-03-08T21:09:26.505Z,100556.82
2019-03-08T21:11:54.770Z,100540.61
2019-03-08T21:14:23.032Z,100544.95
2019-03-08T21:16:51.319Z,100548.13
2019-03-08T21:19:19.586Z,100544.59
2019-03-08T21:21:48.130Z,100542.28
2019-03-08T21:24:16.413Z,100540.94
2019-03-08T21:26:44.682Z,100531.38
2019-03-08T21:29:12.933Z,100533.22
2019-03-08T21:31:41.200Z,100523.61
2019-03-08T21:34:09.492Z,100522.13
2019-03-08T21:36:37.840Z,100524.27
2019-03-08T21:39:06.200Z,100520.64
2019-03-08T21:41:34.481Z,100521.09
2019-03-08T21:44:02.752Z,100524.82
2019-03-08T21:46:31.029Z,100515.75
2019-03-08T21:48:59.368Z,100516.80
2019-03-08T21:51:27.698Z,100513.37
2019-03-08T21:53:55.983Z,100506.34
2019-03-08T21:56:24.228Z,100505.55
2019-03-08T21:58:52.533Z,100503.64
2019-03-08T22:01:20.786Z,100489.20
2019-03-08T22:03:50.967Z,100485.82
2019-03-08T22:06:19.217Z,100480.69
2019-03-08T22:08:57.821Z,100478.84
2019-03-08T22:11:27.715Z,100477.70
2019-03-08T22:13:55.982Z,100468.77
2019-03-08T22:16:24.253Z,100466.84
2019-03-08T22:18:52.517Z,100463.80
2019-03-08T22:21:20.789Z,100456.83
2019-03-08T22:23:49.033Z,100458.28
2019-03-08T22:26:17.296Z,100451.59
2019-03-08T22:28:45.828Z,100448.80
2019-03-08T22:31:14.099Z,100443.66
2019-03-08T22:33:43.272Z,100441.47
2019-03-08T22:36:11.553Z,100441.17
2019-03-08T22:38:39.813Z,100434.55
2019-03-08T22:41:08.092Z,100427.23
2019-03-08T22:43:36.362Z,100419.00
2019-03-08T22:46:04.648Z,100404.47
2019-03-08T22:48:32.931Z,100407.06
2019-03-08T22:51:01.224Z,100399.61
2019-03-08T22:53:29.493Z,100391.84
2019-03-08T22:55:57.766Z,100384.20
2019-03-08T22:58:26.027Z,100382.33
2019-03-08T23:00:59.123Z,100378.34
2019-03-08T23:03:28.200Z,100371.76
2019-03-08T23:05:56.471Z,100375.25
2019-03-08T23:08:24.731Z,100376.70
2019-03-08T23:10:53.026Z,100375.98
2019-03-08T23:13:21.269Z,100372.20
2019-03-08T23:15:49.591Z,100368.66
2019-03-08T23:18:17.848Z,100362.64
2019-03-08T23:20:46.796Z,100366.02
2019-03-08T23:23:15.233Z,100368.52
2019-03-08T23:25:43.499Z,100360.03
2019-03-08T23:28:25.127Z,100353.72
2019-03-08T23:30:55.037Z,100352.31
2019-03-08T23:33:23.582Z,100353.28
2019-03-08T23:35:51.844Z,100349.20
2019-03-08T23:38:20.109Z,100342.95
2019-03-08T23:40:48.361Z,100344.30
2019-03-08T23:43:16.639Z,100348.69
2019-03-08T23:45:44.910Z,100334.22
2019-03-08T23:48:13.177Z,100337.69
2019-03-08T23:50:41.454Z,100333.20
2019-03-08T23:53:09.704Z,100324.73
2019-03-08T23:55:37.972Z,100324.64
2019-03-08T23:58:06.241Z,100318.84
